Rzeszow-Jasionka Airport Rzeszow PL
ICAO: EPRZ
IATA: RZE
Category: Medium
Scheduled Services: Yes

Elevation: 675 ft
TransAlt. 6500 ft.

Airport Communications:
RZESZOW TWR:126.8

EPRZ Zoom In..

If you have problems with the map follow the link
https://www.worldairports.se/pages/airport.php?
ICAO=EPRZ

Runways:

(A) RW 09 length 10499 ft width 148 ft
---- / hdg 86

(B) RW 27 length 10499 ft width 148 ft
ILS 110.30 / hdg 266

Location; EPRZ
Day. 14 / Time. 08.00 Zulu
* QNH: 1012
* Temperature: 06° c. 42.8°f.
* Wind from: 280° Speed 07 kn.
Dewpoint: 05° c.
Visibility: 10 km or more.
Clouds: Scattered 800 ft.
Clouds: Overcast 1900 ft.

EPRZ 140800Z 28007KT 9999 SCT008 OVC019 06/05 Q1012


Wind From 280°
Speed 07 kn.

 
 
jpsmedia worldairports.se 2019   terms of use